Pompeys Pillar, MT

9:54 AM MDT on May 27, 2015 (GMT -0600)
South Big Horn County | | Change Station
CLOSE
Current Station
Airport
Location: Greybull,
Elevation: 3934 ft
Nearby Weather Stations

Elev 3934 ft 44.52 °N, 108.08 °W | Updated 1 hour ago

Overcast
Overcast
57 °F
Feels Like 57 °F
N
5
Wind Variable Wind from SSE
Gusts mph

Today
High -- | Low -- °F
--% Chance of Precip.
Yesterday
High -- | Low -- °F
Precip. -- in
5:28 AM 8:50 PM
Waxing Gibbous, 68% visible
Pressure 29.95 in
Visibility 10.0 miles
Clouds
Dew Point 52 °F
Humidity 83%
Rainfall 0.00 in
Snow Depth Not available.
UV Not available.
Pollen 6.30 out of 12
Air Quality Not available.
Flu Activity Sporadic
METAR KGEY 271453Z AUTO 16004KT 10SM 14/11 A3001 RMK AO2 SLP141 T01390111 $

More Conditions Fewer Conditions

Pressure 29.95 in
Visibility 10.0 miles
Clouds
Dew Point 52 °F
Humidity 83%
Rainfall 0.00 in
Snow Depth Not available.
UV Not available.
Pollen 6.30 out of 12
Air Quality Not available.
Flu Activity Sporadic
METAR KGEY 271453Z AUTO 16004KT 10SM 14/11 A3001 RMK AO2 SLP141 T01390111 $

More Conditions Fewer Conditions

10-Day Weather Forecast

Almanac

Astronomy

May. 27, 2015 Rise Set
Actual Time
Civil Twilight
Nautical Twilight
Astronomical Twilight
Moon
Length of Visible Light
Length of Day
Tomorrow will be .
, % of the Moon is Illuminated

Today's Extremes

State Highs State Lows

Community

WunderPhotos

Upload Photos

1,824,699 photos uploaded!

WunderBlogs® & News

Nearby

Air Quality

  Air Quality AQ Index Pollutant
Not available.

Snow Depth

Station Depth Elevation

Earthquake Activity

City Distance Mag. Time & Date
Minimum magnitude displayed is 2.5.

Coastal Water Temperatures

Place Temperature

Stations

Nearby Weather Stations

Station Location Temp. Windchill Dew Point Humidity Wind Precip. Elev Updated Type